sensor_id;sensor_type;location;lat;lon;timestamp;P1;durP1;ratioP1;P2;durP2;ratioP2
16579;SDS011;8402;51.466;6.806;2023-07-02T00:02:23;6.70;;;3.35;;
16579;SDS011;8402;51.466;6.806;2023-07-02T00:04:56;5.75;;;3.08;;
16579;SDS011;8402;51.466;6.806;2023-07-02T00:07:26;6.03;;;3.15;;
16579;SDS011;8402;51.466;6.806;2023-07-02T00:09:56;6.53;;;3.22;;
16579;SDS011;8402;51.466;6.806;2023-07-02T00:12:26;6.70;;;3.28;;
16579;SDS011;8402;51.466;6.806;2023-07-02T00:14:56;6.50;;;3.55;;
16579;SDS011;8402;51.466;6.806;2023-07-02T00:17:26;7.38;;;3.80;;
16579;SDS011;8402;51.466;6.806;2023-07-02T00:19:58;8.95;;;3.92;;
16579;SDS011;8402;51.466;6.806;2023-07-02T00:22:29;5.70;;;3.25;;
16579;SDS011;8402;51.466;6.806;2023-07-02T00:25:03;8.95;;;3.88;;
16579;SDS011;8402;51.466;6.806;2023-07-02T00:27:33;8.40;;;3.65;;
16579;SDS011;8402;51.466;6.806;2023-07-02T00:30:04;8.15;;;3.42;;
16579;SDS011;8402;51.466;6.806;2023-07-02T00:32:35;9.73;;;3.45;;
16579;SDS011;8402;51.466;6.806;2023-07-02T00:35:08;7.68;;;3.80;;
16579;SDS011;8402;51.466;6.806;2023-07-02T00:37:38;6.35;;;3.60;;
16579;SDS011;8402;51.466;6.806;2023-07-02T00:40:08;6.80;;;3.75;;
16579;SDS011;8402;51.466;6.806;2023-07-02T00:42:39;9.40;;;3.85;;
16579;SDS011;8402;51.466;6.806;2023-07-02T00:45:09;5.72;;;3.33;;
16579;SDS011;8402;51.466;6.806;2023-07-02T00:47:39;7.40;;;4.22;;
16579;SDS011;8402;51.466;6.806;2023-07-02T00:50:12;10.82;;;3.95;;
16579;SDS011;8402;51.466;6.806;2023-07-02T00:52:43;9.15;;;3.90;;
16579;SDS011;8402;51.466;6.806;2023-07-02T00:55:13;7.03;;;3.67;;
16579;SDS011;8402;51.466;6.806;2023-07-02T00:57:43;7.88;;;3.90;;
16579;SDS011;8402;51.466;6.806;2023-07-02T01:00:13;8.88;;;3.80;;
16579;SDS011;8402;51.466;6.806;2023-07-02T01:02:43;7.32;;;3.78;;
16579;SDS011;8402;51.466;6.806;2023-07-02T01:05:26;6.45;;;3.75;;
16579;SDS011;8402;51.466;6.806;2023-07-02T01:08:02;7.82;;;4.47;;
16579;SDS011;8402;51.466;6.806;2023-07-02T01:10:32;6.93;;;3.53;;
16579;SDS011;8402;51.466;6.806;2023-07-02T01:13:04;7.57;;;3.72;;
16579;SDS011;8402;51.466;6.806;2023-07-02T01:15:38;12.23;;;4.40;;
16579;SDS011;8402;51.466;6.806;2023-07-02T01:18:09;8.05;;;4.43;;
16579;SDS011;8402;51.466;6.806;2023-07-02T01:20:44;8.68;;;3.92;;
16579;SDS011;8402;51.466;6.806;2023-07-02T01:23:15;6.72;;;3.97;;
16579;SDS011;8402;51.466;6.806;2023-07-02T01:25:45;6.00;;;3.60;;
16579;SDS011;8402;51.466;6.806;2023-07-02T01:28:17;9.98;;;4.15;;
16579;SDS011;8402;51.466;6.806;2023-07-02T01:30:47;8.43;;;4.07;;
16579;SDS011;8402;51.466;6.806;2023-07-02T01:33:17;9.35;;;4.47;;
16579;SDS011;8402;51.466;6.806;2023-07-02T01:35:49;12.23;;;4.43;;
16579;SDS011;8402;51.466;6.806;2023-07-02T01:38:20;9.52;;;4.10;;
16579;SDS011;8402;51.466;6.806;2023-07-02T01:40:50;9.43;;;4.57;;
16579;SDS011;8402;51.466;6.806;2023-07-02T01:43:20;10.52;;;4.43;;
16579;SDS011;8402;51.466;6.806;2023-07-02T01:45:50;11.82;;;4.80;;
16579;SDS011;8402;51.466;6.806;2023-07-02T01:48:22;10.60;;;4.80;;
16579;SDS011;8402;51.466;6.806;2023-07-02T01:50:55;9.15;;;4.43;;
16579;SDS011;8402;51.466;6.806;2023-07-02T01:53:25;13.20;;;4.85;;
16579;SDS011;8402;51.466;6.806;2023-07-02T01:55:55;10.18;;;4.53;;
16579;SDS011;8402;51.466;6.806;2023-07-02T01:58:25;11.57;;;5.05;;
16579;SDS011;8402;51.466;6.806;2023-07-02T02:00:54;13.93;;;4.85;;
16579;SDS011;8402;51.466;6.806;2023-07-02T02:03:25;14.23;;;5.18;;
16579;SDS011;8402;51.466;6.806;2023-07-02T02:05:58;13.27;;;5.82;;
16579;SDS011;8402;51.466;6.806;2023-07-02T02:08:28;11.98;;;5.15;;
16579;SDS011;8402;51.466;6.806;2023-07-02T02:10:58;9.15;;;4.45;;
16579;SDS011;8402;51.466;6.806;2023-07-02T02:13:28;10.27;;;5.07;;
16579;SDS011;8402;51.466;6.806;2023-07-02T02:15:58;11.68;;;4.93;;
16579;SDS011;8402;51.466;6.806;2023-07-02T02:18:28;14.07;;;5.63;;
16579;SDS011;8402;51.466;6.806;2023-07-02T02:21:01;14.73;;;6.07;;
16579;SDS011;8402;51.466;6.806;2023-07-02T02:23:31;12.98;;;5.57;;
16579;SDS011;8402;51.466;6.806;2023-07-02T02:26:01;10.07;;;5.68;;
16579;SDS011;8402;51.466;6.806;2023-07-02T02:28:31;11.43;;;5.15;;
16579;SDS011;8402;51.466;6.806;2023-07-02T02:31:01;13.02;;;5.63;;
16579;SDS011;8402;51.466;6.806;2023-07-02T02:33:31;15.68;;;6.03;;
16579;SDS011;8402;51.466;6.806;2023-07-02T02:36:04;14.25;;;6.40;;
16579;SDS011;8402;51.466;6.806;2023-07-02T02:38:34;18.42;;;6.20;;
16579;SDS011;8402;51.466;6.806;2023-07-02T02:41:04;16.60;;;6.37;;
16579;SDS011;8402;51.466;6.806;2023-07-02T02:43:35;16.73;;;6.97;;
16579;SDS011;8402;51.466;6.806;2023-07-02T02:46:05;12.40;;;6.07;;
16579;SDS011;8402;51.466;6.806;2023-07-02T02:48:35;14.90;;;7.32;;
16579;SDS011;8402;51.466;6.806;2023-07-02T02:51:08;16.40;;;7.23;;
16579;SDS011;8402;51.466;6.806;2023-07-02T02:53:37;18.57;;;6.87;;
16579;SDS011;8402;51.466;6.806;2023-07-02T02:56:07;14.27;;;6.90;;
16579;SDS011;8402;51.466;6.806;2023-07-02T02:58:37;15.10;;;7.00;;
16579;SDS011;8402;51.466;6.806;2023-07-02T03:01:07;24.27;;;7.23;;
16579;SDS011;8402;51.466;6.806;2023-07-02T03:03:39;21.95;;;7.25;;
16579;SDS011;8402;51.466;6.806;2023-07-02T03:06:15;21.00;;;7.67;;
16579;SDS011;8402;51.466;6.806;2023-07-02T03:08:45;16.80;;;8.20;;
16579;SDS011;8402;51.466;6.806;2023-07-02T03:11:15;19.85;;;7.68;;
16579;SDS011;8402;51.466;6.806;2023-07-02T03:13:45;17.90;;;7.72;;
16579;SDS011;8402;51.466;6.806;2023-07-02T03:16:15;17.58;;;7.80;;
16579;SDS011;8402;51.466;6.806;2023-07-02T03:18:45;19.00;;;8.13;;
16579;SDS011;8402;51.466;6.806;2023-07-02T03:21:17;18.30;;;9.00;;
16579;SDS011;8402;51.466;6.806;2023-07-02T03:23:47;19.60;;;8.73;;
16579;SDS011;8402;51.466;6.806;2023-07-02T03:26:17;21.95;;;9.60;;
16579;SDS011;8402;51.466;6.806;2023-07-02T03:28:48;20.97;;;8.90;;
16579;SDS011;8402;51.466;6.806;2023-07-02T03:31:18;22.93;;;9.23;;
16579;SDS011;8402;51.466;6.806;2023-07-02T03:33:48;20.80;;;9.23;;
16579;SDS011;8402;51.466;6.806;2023-07-02T03:36:21;20.85;;;9.23;;
16579;SDS011;8402;51.466;6.806;2023-07-02T03:38:50;25.03;;;9.60;;
16579;SDS011;8402;51.466;6.806;2023-07-02T03:41:20;23.93;;;9.60;;
16579;SDS011;8402;51.466;6.806;2023-07-02T03:43:50;22.67;;;9.17;;
16579;SDS011;8402;51.466;6.806;2023-07-02T03:46:20;24.27;;;9.65;;
16579;SDS011;8402;51.466;6.806;2023-07-02T03:48:50;22.00;;;9.30;;
16579;SDS011;8402;51.466;6.806;2023-07-02T03:51:24;20.88;;;9.68;;
16579;SDS011;8402;51.466;6.806;2023-07-02T03:53:54;23.90;;;9.53;;
16579;SDS011;8402;51.466;6.806;2023-07-02T03:56:24;24.15;;;10.13;;
16579;SDS011;8402;51.466;6.806;2023-07-02T03:58:54;25.55;;;9.55;;
16579;SDS011;8402;51.466;6.806;2023-07-02T04:01:24;24.85;;;9.32;;
16579;SDS011;8402;51.466;6.806;2023-07-02T04:03:54;23.73;;;10.07;;
16579;SDS011;8402;51.466;6.806;2023-07-02T04:06:28;23.75;;;10.00;;
16579;SDS011;8402;51.466;6.806;2023-07-02T04:08:58;30.20;;;10.43;;
16579;SDS011;8402;51.466;6.806;2023-07-02T04:11:28;29.38;;;10.02;;
16579;SDS011;8402;51.466;6.806;2023-07-02T04:13:58;25.40;;;9.80;;
16579;SDS011;8402;51.466;6.806;2023-07-02T04:16:28;24.77;;;9.55;;
16579;SDS011;8402;51.466;6.806;2023-07-02T04:18:58;24.40;;;10.50;;
16579;SDS011;8402;51.466;6.806;2023-07-02T04:21:30;27.80;;;10.48;;
16579;SDS011;8402;51.466;6.806;2023-07-02T04:24:00;28.27;;;11.55;;
16579;SDS011;8402;51.466;6.806;2023-07-02T04:26:30;32.92;;;10.82;;
16579;SDS011;8402;51.466;6.806;2023-07-02T04:29:20;25.77;;;10.70;;
16579;SDS011;8402;51.466;6.806;2023-07-02T04:31:50;21.97;;;9.73;;
16579;SDS011;8402;51.466;6.806;2023-07-02T04:34:20;27.07;;;11.13;;
16579;SDS011;8402;51.466;6.806;2023-07-02T04:36:53;22.15;;;10.60;;
16579;SDS011;8402;51.466;6.806;2023-07-02T04:39:23;24.73;;;10.73;;
16579;SDS011;8402;51.466;6.806;2023-07-02T04:41:53;24.85;;;10.50;;
16579;SDS011;8402;51.466;6.806;2023-07-02T04:44:23;23.93;;;10.43;;
16579;SDS011;8402;51.466;6.806;2023-07-02T04:46:56;23.52;;;10.85;;
16579;SDS011;8402;51.466;6.806;2023-07-02T04:49:27;24.97;;;11.10;;
16579;SDS011;8402;51.466;6.806;2023-07-02T04:52:00;26.00;;;10.77;;
16579;SDS011;8402;51.466;6.806;2023-07-02T04:54:30;28.50;;;11.10;;
16579;SDS011;8402;51.466;6.806;2023-07-02T04:57:00;27.73;;;10.60;;
16579;SDS011;8402;51.466;6.806;2023-07-02T04:59:30;27.50;;;10.98;;
16579;SDS011;8402;51.466;6.806;2023-07-02T05:02:00;32.13;;;11.88;;
16579;SDS011;8402;51.466;6.806;2023-07-02T05:04:30;29.98;;;11.15;;
16579;SDS011;8402;51.466;6.806;2023-07-02T05:07:03;24.67;;;11.65;;
16579;SDS011;8402;51.466;6.806;2023-07-02T05:09:33;24.90;;;11.67;;
16579;SDS011;8402;51.466;6.806;2023-07-02T05:12:03;26.07;;;11.40;;
16579;SDS011;8402;51.466;6.806;2023-07-02T05:14:34;27.47;;;11.43;;
16579;SDS011;8402;51.466;6.806;2023-07-02T05:17:04;25.10;;;10.98;;
16579;SDS011;8402;51.466;6.806;2023-07-02T05:19:34;28.70;;;11.40;;
16579;SDS011;8402;51.466;6.806;2023-07-02T05:22:07;26.38;;;11.88;;
16579;SDS011;8402;51.466;6.806;2023-07-02T05:24:37;27.00;;;12.47;;
16579;SDS011;8402;51.466;6.806;2023-07-02T05:27:07;23.37;;;11.47;;
16579;SDS011;8402;51.466;6.806;2023-07-02T05:29:38;31.60;;;12.57;;
16579;SDS011;8402;51.466;6.806;2023-07-02T05:32:08;31.65;;;12.55;;
16579;SDS011;8402;51.466;6.806;2023-07-02T05:34:38;28.15;;;12.00;;
16579;SDS011;8402;51.466;6.806;2023-07-02T05:37:10;27.75;;;12.10;;
16579;SDS011;8402;51.466;6.806;2023-07-02T05:39:40;30.00;;;12.93;;
16579;SDS011;8402;51.466;6.806;2023-07-02T05:42:10;32.42;;;11.57;;
16579;SDS011;8402;51.466;6.806;2023-07-02T05:44:40;27.85;;;11.30;;
16579;SDS011;8402;51.466;6.806;2023-07-02T05:47:11;28.48;;;12.25;;
16579;SDS011;8402;51.466;6.806;2023-07-02T05:49:41;30.05;;;13.02;;
16579;SDS011;8402;51.466;6.806;2023-07-02T05:52:13;28.90;;;13.25;;
16579;SDS011;8402;51.466;6.806;2023-07-02T05:54:43;31.08;;;12.15;;
16579;SDS011;8402;51.466;6.806;2023-07-02T05:57:13;25.92;;;12.63;;
16579;SDS011;8402;51.466;6.806;2023-07-02T05:59:43;28.17;;;12.13;;
16579;SDS011;8402;51.466;6.806;2023-07-02T06:02:13;25.95;;;11.88;;
16579;SDS011;8402;51.466;6.806;2023-07-02T06:04:43;25.05;;;12.20;;
16579;SDS011;8402;51.466;6.806;2023-07-02T06:07:15;22.88;;;10.98;;
16579;SDS011;8402;51.466;6.806;2023-07-02T06:09:45;26.80;;;11.60;;
16579;SDS011;8402;51.466;6.806;2023-07-02T06:12:15;24.48;;;11.05;;
16579;SDS011;8402;51.466;6.806;2023-07-02T06:14:47;32.50;;;12.00;;
16579;SDS011;8402;51.466;6.806;2023-07-02T06:17:17;25.55;;;11.57;;
16579;SDS011;8402;51.466;6.806;2023-07-02T06:19:48;27.75;;;11.25;;
16579;SDS011;8402;51.466;6.806;2023-07-02T06:22:21;27.40;;;11.98;;
16579;SDS011;8402;51.466;6.806;2023-07-02T06:24:50;29.25;;;10.27;;
16579;SDS011;8402;51.466;6.806;2023-07-02T06:27:21;26.20;;;10.80;;
16579;SDS011;8402;51.466;6.806;2023-07-02T06:29:50;25.23;;;11.23;;
16579;SDS011;8402;51.466;6.806;2023-07-02T06:32:20;23.60;;;10.43;;
16579;SDS011;8402;51.466;6.806;2023-07-02T06:34:50;21.67;;;9.18;;
16579;SDS011;8402;51.466;6.806;2023-07-02T06:37:23;22.85;;;10.10;;
16579;SDS011;8402;51.466;6.806;2023-07-02T06:39:53;23.45;;;10.10;;
16579;SDS011;8402;51.466;6.806;2023-07-02T06:42:23;21.65;;;10.20;;
16579;SDS011;8402;51.466;6.806;2023-07-02T06:44:54;22.10;;;10.02;;
16579;SDS011;8402;51.466;6.806;2023-07-02T06:47:24;24.30;;;9.82;;
16579;SDS011;8402;51.466;6.806;2023-07-02T06:49:53;29.38;;;10.80;;
16579;SDS011;8402;51.466;6.806;2023-07-02T06:52:27;23.17;;;9.85;;
16579;SDS011;8402;51.466;6.806;2023-07-02T06:54:57;22.42;;;10.18;;
16579;SDS011;8402;51.466;6.806;2023-07-02T06:57:27;19.98;;;9.63;;
16579;SDS011;8402;51.466;6.806;2023-07-02T06:59:57;20.33;;;9.95;;
16579;SDS011;8402;51.466;6.806;2023-07-02T07:02:28;21.35;;;9.35;;
16579;SDS011;8402;51.466;6.806;2023-07-02T07:04:58;22.88;;;9.18;;
16579;SDS011;8402;51.466;6.806;2023-07-02T07:07:31;24.05;;;9.50;;
16579;SDS011;8402;51.466;6.806;2023-07-02T07:10:01;25.02;;;9.07;;
16579;SDS011;8402;51.466;6.806;2023-07-02T07:12:31;22.85;;;9.23;;
16579;SDS011;8402;51.466;6.806;2023-07-02T07:15:01;18.15;;;8.85;;
16579;SDS011;8402;51.466;6.806;2023-07-02T07:17:31;23.13;;;9.75;;
16579;SDS011;8402;51.466;6.806;2023-07-02T07:20:01;23.15;;;10.10;;
16579;SDS011;8402;51.466;6.806;2023-07-02T07:22:34;22.98;;;9.77;;
16579;SDS011;8402;51.466;6.806;2023-07-02T07:25:04;25.02;;;10.23;;
16579;SDS011;8402;51.466;6.806;2023-07-02T07:27:35;21.65;;;9.88;;
16579;SDS011;8402;51.466;6.806;2023-07-02T07:30:05;21.00;;;9.57;;
16579;SDS011;8402;51.466;6.806;2023-07-02T07:32:36;19.27;;;10.25;;
16579;SDS011;8402;51.466;6.806;2023-07-02T07:35:06;17.05;;;7.88;;
16579;SDS011;8402;51.466;6.806;2023-07-02T07:37:39;21.65;;;7.43;;
16579;SDS011;8402;51.466;6.806;2023-07-02T07:40:10;16.50;;;7.43;;
16579;SDS011;8402;51.466;6.806;2023-07-02T07:42:40;20.73;;;7.65;;
16579;SDS011;8402;51.466;6.806;2023-07-02T07:45:10;16.73;;;7.22;;
16579;SDS011;8402;51.466;6.806;2023-07-02T07:47:41;18.98;;;7.65;;
16579;SDS011;8402;51.466;6.806;2023-07-02T07:50:11;16.27;;;7.60;;
16579;SDS011;8402;51.466;6.806;2023-07-02T07:52:43;16.08;;;7.25;;
16579;SDS011;8402;51.466;6.806;2023-07-02T07:55:13;19.30;;;7.72;;
16579;SDS011;8402;51.466;6.806;2023-07-02T07:57:43;20.17;;;7.53;;
16579;SDS011;8402;51.466;6.806;2023-07-02T08:00:14;17.88;;;7.45;;
16579;SDS011;8402;51.466;6.806;2023-07-02T08:02:45;18.75;;;7.55;;
16579;SDS011;8402;51.466;6.806;2023-07-02T08:05:15;17.67;;;7.25;;
16579;SDS011;8402;51.466;6.806;2023-07-02T08:07:48;17.67;;;7.13;;
16579;SDS011;8402;51.466;6.806;2023-07-02T08:10:20;19.08;;;7.25;;
16579;SDS011;8402;51.466;6.806;2023-07-02T08:12:50;15.18;;;6.90;;
16579;SDS011;8402;51.466;6.806;2023-07-02T08:15:21;16.02;;;7.10;;
16579;SDS011;8402;51.466;6.806;2023-07-02T08:17:51;17.70;;;6.55;;
16579;SDS011;8402;51.466;6.806;2023-07-02T08:20:24;15.88;;;6.50;;
16579;SDS011;8402;51.466;6.806;2023-07-02T08:22:56;14.82;;;6.57;;
16579;SDS011;8402;51.466;6.806;2023-07-02T08:25:26;17.05;;;6.50;;
16579;SDS011;8402;51.466;6.806;2023-07-02T08:27:56;15.48;;;6.43;;
16579;SDS011;8402;51.466;6.806;2023-07-02T08:30:26;15.95;;;6.78;;
16579;SDS011;8402;51.466;6.806;2023-07-02T08:32:56;13.32;;;5.85;;
16579;SDS011;8402;51.466;6.806;2023-07-02T08:35:27;12.95;;;5.45;;
16579;SDS011;8402;51.466;6.806;2023-07-02T08:37:59;12.25;;;5.28;;
16579;SDS011;8402;51.466;6.806;2023-07-02T08:40:29;16.45;;;6.43;;
16579;SDS011;8402;51.466;6.806;2023-07-02T08:42:59;11.75;;;5.68;;
16579;SDS011;8402;51.466;6.806;2023-07-02T08:45:29;12.80;;;5.50;;
16579;SDS011;8402;51.466;6.806;2023-07-02T08:48:00;11.10;;;5.15;;
16579;SDS011;8402;51.466;6.806;2023-07-02T08:50:30;12.20;;;5.57;;
16579;SDS011;8402;51.466;6.806;2023-07-02T08:53:02;11.68;;;5.43;;
16579;SDS011;8402;51.466;6.806;2023-07-02T08:55:32;12.70;;;5.28;;
16579;SDS011;8402;51.466;6.806;2023-07-02T08:58:02;15.50;;;5.47;;
16579;SDS011;8402;51.466;6.806;2023-07-02T09:00:32;13.35;;;5.45;;
16579;SDS011;8402;51.466;6.806;2023-07-02T09:03:13;13.38;;;5.45;;
16579;SDS011;8402;51.466;6.806;2023-07-02T09:05:48;16.83;;;5.68;;
16579;SDS011;8402;51.466;6.806;2023-07-02T09:08:25;12.00;;;5.53;;
16579;SDS011;8402;51.466;6.806;2023-07-02T09:11:05;14.45;;;5.57;;
16579;SDS011;8402;51.466;6.806;2023-07-02T09:13:45;13.18;;;6.15;;
16579;SDS011;8402;51.466;6.806;2023-07-02T09:16:22;10.27;;;5.50;;
16579;SDS011;8402;51.466;6.806;2023-07-02T09:18:56;17.85;;;6.00;;
16579;SDS011;8402;51.466;6.806;2023-07-02T09:21:38;16.50;;;6.20;;
16579;SDS011;8402;51.466;6.806;2023-07-02T09:24:14;13.30;;;6.25;;
16579;SDS011;8402;51.466;6.806;2023-07-02T09:26:45;12.98;;;5.88;;
16579;SDS011;8402;51.466;6.806;2023-07-02T09:29:20;11.90;;;6.10;;
16579;SDS011;8402;51.466;6.806;2023-07-02T09:31:51;14.70;;;6.03;;
16579;SDS011;8402;51.466;6.806;2023-07-02T09:34:27;15.02;;;7.00;;
16579;SDS011;8402;51.466;6.806;2023-07-02T09:36:59;18.10;;;7.18;;
16579;SDS011;8402;51.466;6.806;2023-07-02T09:39:33;17.75;;;6.95;;
16579;SDS011;8402;51.466;6.806;2023-07-02T09:42:06;15.27;;;6.53;;
16579;SDS011;8402;51.466;6.806;2023-07-02T09:44:37;13.93;;;6.72;;
16579;SDS011;8402;51.466;6.806;2023-07-02T09:47:09;13.50;;;6.03;;
16579;SDS011;8402;51.466;6.806;2023-07-02T09:49:41;13.13;;;6.30;;
16579;SDS011;8402;51.466;6.806;2023-07-02T09:52:18;13.82;;;5.55;;
16579;SDS011;8402;51.466;6.806;2023-07-02T09:54:51;12.82;;;5.25;;
16579;SDS011;8402;51.466;6.806;2023-07-02T09:57:21;8.77;;;5.03;;
16579;SDS011;8402;51.466;6.806;2023-07-02T09:59:51;13.02;;;5.72;;
16579;SDS011;8402;51.466;6.806;2023-07-02T10:02:21;12.57;;;5.10;;
16579;SDS011;8402;51.466;6.806;2023-07-02T10:04:51;10.07;;;4.95;;
16579;SDS011;8402;51.466;6.806;2023-07-02T10:07:25;12.43;;;5.05;;
16579;SDS011;8402;51.466;6.806;2023-07-02T10:09:59;11.07;;;5.00;;
16579;SDS011;8402;51.466;6.806;2023-07-02T10:12:29;12.40;;;5.03;;
16579;SDS011;8402;51.466;6.806;2023-07-02T10:14:59;9.10;;;5.00;;
16579;SDS011;8402;51.466;6.806;2023-07-02T10:17:30;11.20;;;5.20;;
16579;SDS011;8402;51.466;6.806;2023-07-02T10:20:02;14.07;;;5.63;;
16579;SDS011;8402;51.466;6.806;2023-07-02T10:22:41;12.75;;;5.20;;
16579;SDS011;8402;51.466;6.806;2023-07-02T10:25:26;14.82;;;5.57;;
16579;SDS011;8402;51.466;6.806;2023-07-02T10:27:57;8.75;;;5.20;;
16579;SDS011;8402;51.466;6.806;2023-07-02T10:30:30;13.43;;;5.75;;
16579;SDS011;8402;51.466;6.806;2023-07-02T10:33:07;11.30;;;5.45;;
16579;SDS011;8402;51.466;6.806;2023-07-02T10:35:39;13.75;;;5.68;;
16579;SDS011;8402;51.466;6.806;2023-07-02T10:38:14;11.60;;;6.00;;
16579;SDS011;8402;51.466;6.806;2023-07-02T10:40:53;9.75;;;5.60;;
16579;SDS011;8402;51.466;6.806;2023-07-02T10:43:24;17.55;;;6.25;;
16579;SDS011;8402;51.466;6.806;2023-07-02T10:45:57;12.88;;;5.57;;
16579;SDS011;8402;51.466;6.806;2023-07-02T10:48:31;14.52;;;5.72;;
16579;SDS011;8402;51.466;6.806;2023-07-02T10:51:10;10.93;;;5.00;;
16579;SDS011;8402;51.466;6.806;2023-07-02T10:53:41;16.10;;;5.75;;
16579;SDS011;8402;51.466;6.806;2023-07-02T10:56:18;15.00;;;5.75;;
16579;SDS011;8402;51.466;6.806;2023-07-02T10:58:48;13.88;;;5.50;;
16579;SDS011;8402;51.466;6.806;2023-07-02T11:01:22;11.02;;;5.45;;
16579;SDS011;8402;51.466;6.806;2023-07-02T11:03:56;14.52;;;5.72;;
16579;SDS011;8402;51.466;6.806;2023-07-02T11:06:27;11.85;;;5.63;;
16579;SDS011;8402;51.466;6.806;2023-07-02T11:08:59;15.23;;;5.50;;
16579;SDS011;8402;51.466;6.806;2023-07-02T11:11:33;15.27;;;6.38;;
16579;SDS011;8402;51.466;6.806;2023-07-02T11:14:03;14.45;;;5.50;;
16579;SDS011;8402;51.466;6.806;2023-07-02T11:16:32;15.60;;;6.18;;
16579;SDS011;8402;51.466;6.806;2023-07-02T11:19:07;10.85;;;5.32;;
16579;SDS011;8402;51.466;6.806;2023-07-02T11:21:38;11.93;;;5.40;;
16579;SDS011;8402;51.466;6.806;2023-07-02T11:24:26;13.20;;;6.15;;
16579;SDS011;8402;51.466;6.806;2023-07-02T11:27:00;15.13;;;5.82;;
16579;SDS011;8402;51.466;6.806;2023-07-02T11:29:34;12.85;;;5.35;;
16579;SDS011;8402;51.466;6.806;2023-07-02T11:32:05;10.32;;;5.20;;
16579;SDS011;8402;51.466;6.806;2023-07-02T11:34:36;9.45;;;5.13;;
16579;SDS011;8402;51.466;6.806;2023-07-02T11:37:06;11.27;;;5.18;;
16579;SDS011;8402;51.466;6.806;2023-07-02T11:39:36;11.25;;;5.18;;
16579;SDS011;8402;51.466;6.806;2023-07-02T11:42:09;11.35;;;5.03;;
16579;SDS011;8402;51.466;6.806;2023-07-02T11:44:40;13.15;;;4.70;;
16579;SDS011;8402;51.466;6.806;2023-07-02T11:47:10;11.57;;;4.80;;
16579;SDS011;8402;51.466;6.806;2023-07-02T11:49:40;9.07;;;5.03;;
16579;SDS011;8402;51.466;6.806;2023-07-02T11:52:10;11.07;;;5.43;;
16579;SDS011;8402;51.466;6.806;2023-07-02T11:54:43;15.43;;;5.65;;
16579;SDS011;8402;51.466;6.806;2023-07-02T11:57:15;11.95;;;5.38;;
16579;SDS011;8402;51.466;6.806;2023-07-02T11:59:45;10.50;;;5.18;;
16579;SDS011;8402;51.466;6.806;2023-07-02T12:02:15;10.57;;;5.40;;
16579;SDS011;8402;51.466;6.806;2023-07-02T12:04:45;9.88;;;4.88;;
16579;SDS011;8402;51.466;6.806;2023-07-02T12:07:16;10.57;;;4.60;;
16579;SDS011;8402;51.466;6.806;2023-07-02T12:09:47;13.70;;;5.50;;
16579;SDS011;8402;51.466;6.806;2023-07-02T12:12:20;11.38;;;5.57;;
16579;SDS011;8402;51.466;6.806;2023-07-02T12:14:51;11.40;;;5.45;;
16579;SDS011;8402;51.466;6.806;2023-07-02T12:17:21;10.75;;;5.57;;
16579;SDS011;8402;51.466;6.806;2023-07-02T12:19:54;11.32;;;5.75;;
16579;SDS011;8402;51.466;6.806;2023-07-02T12:22:24;11.63;;;5.70;;
16579;SDS011;8402;51.466;6.806;2023-07-02T12:24:55;11.55;;;5.35;;
16579;SDS011;8402;51.466;6.806;2023-07-02T12:27:27;13.38;;;5.60;;
16579;SDS011;8402;51.466;6.806;2023-07-02T12:29:57;15.05;;;5.35;;
16579;SDS011;8402;51.466;6.806;2023-07-02T12:32:27;12.63;;;5.63;;
16579;SDS011;8402;51.466;6.806;2023-07-02T12:34:57;14.07;;;6.03;;
16579;SDS011;8402;51.466;6.806;2023-07-02T12:37:28;15.00;;;5.60;;
16579;SDS011;8402;51.466;6.806;2023-07-02T12:39:58;12.98;;;5.80;;
16579;SDS011;8402;51.466;6.806;2023-07-02T12:42:32;12.75;;;5.38;;
16579;SDS011;8402;51.466;6.806;2023-07-02T12:45:03;14.95;;;6.35;;
16579;SDS011;8402;51.466;6.806;2023-07-02T12:47:35;15.70;;;5.95;;
16579;SDS011;8402;51.466;6.806;2023-07-02T12:50:06;11.23;;;5.32;;
16579;SDS011;8402;51.466;6.806;2023-07-02T12:52:37;10.57;;;5.47;;
16579;SDS011;8402;51.466;6.806;2023-07-02T12:55:08;15.50;;;6.00;;
16579;SDS011;8402;51.466;6.806;2023-07-02T12:57:46;14.63;;;5.57;;
16579;SDS011;8402;51.466;6.806;2023-07-02T13:00:16;11.38;;;5.70;;
16579;SDS011;8402;51.466;6.806;2023-07-02T13:02:47;11.90;;;5.85;;
16579;SDS011;8402;51.466;6.806;2023-07-02T13:05:30;10.38;;;5.53;;
16579;SDS011;8402;51.466;6.806;2023-07-02T13:08:00;15.18;;;6.57;;
16579;SDS011;8402;51.466;6.806;2023-07-02T13:10:31;11.63;;;5.90;;
16579;SDS011;8402;51.466;6.806;2023-07-02T13:13:05;12.05;;;6.50;;
16579;SDS011;8402;51.466;6.806;2023-07-02T13:15:48;11.15;;;6.75;;
16579;SDS011;8402;51.466;6.806;2023-07-02T13:18:19;13.88;;;6.57;;
16579;SDS011;8402;51.466;6.806;2023-07-02T13:20:49;12.18;;;6.43;;
16579;SDS011;8402;51.466;6.806;2023-07-02T13:23:19;14.93;;;6.72;;
16579;SDS011;8402;51.466;6.806;2023-07-02T13:25:49;13.25;;;7.28;;
16579;SDS011;8402;51.466;6.806;2023-07-02T13:28:21;13.35;;;6.93;;
16579;SDS011;8402;51.466;6.806;2023-07-02T13:30:51;13.98;;;7.15;;
16579;SDS011;8402;51.466;6.806;2023-07-02T13:33:21;16.42;;;6.68;;
16579;SDS011;8402;51.466;6.806;2023-07-02T13:35:52;17.73;;;7.80;;
16579;SDS011;8402;51.466;6.806;2023-07-02T13:38:22;14.50;;;7.13;;
16579;SDS011;8402;51.466;6.806;2023-07-02T13:40:52;14.98;;;7.20;;
16579;SDS011;8402;51.466;6.806;2023-07-02T13:43:24;17.13;;;7.15;;
16579;SDS011;8402;51.466;6.806;2023-07-02T13:45:54;14.48;;;6.95;;
16579;SDS011;8402;51.466;6.806;2023-07-02T13:48:24;11.80;;;7.18;;
16579;SDS011;8402;51.466;6.806;2023-07-02T13:50:54;14.45;;;6.93;;
16579;SDS011;8402;51.466;6.806;2023-07-02T13:53:24;15.55;;;7.00;;
16579;SDS011;8402;51.466;6.806;2023-07-02T13:55:59;14.30;;;6.78;;
16579;SDS011;8402;51.466;6.806;2023-07-02T14:01:30;17.70;;;7.88;;
16579;SDS011;8402;51.466;6.806;2023-07-02T14:04:00;14.30;;;7.80;;
16579;SDS011;8402;51.466;6.806;2023-07-02T14:06:34;12.60;;;7.00;;
16579;SDS011;8402;51.466;6.806;2023-07-02T14:09:05;17.75;;;7.38;;
16579;SDS011;8402;51.466;6.806;2023-07-02T14:11:38;13.05;;;7.10;;
16579;SDS011;8402;51.466;6.806;2023-07-02T14:14:13;16.75;;;7.40;;
16579;SDS011;8402;51.466;6.806;2023-07-02T14:16:43;17.88;;;7.47;;
16579;SDS011;8402;51.466;6.806;2023-07-02T14:19:15;18.10;;;7.00;;
16579;SDS011;8402;51.466;6.806;2023-07-02T14:21:45;14.93;;;7.20;;
16579;SDS011;8402;51.466;6.806;2023-07-02T14:24:15;17.10;;;7.28;;
16579;SDS011;8402;51.466;6.806;2023-07-02T14:26:46;18.55;;;7.90;;
16579;SDS011;8402;51.466;6.806;2023-07-02T14:29:18;19.30;;;7.45;;
16579;SDS011;8402;51.466;6.806;2023-07-02T14:31:49;12.00;;;7.00;;
16579;SDS011;8402;51.466;6.806;2023-07-02T14:34:19;18.20;;;7.63;;
16579;SDS011;8402;51.466;6.806;2023-07-02T14:36:49;18.15;;;7.55;;
16579;SDS011;8402;51.466;6.806;2023-07-02T14:39:19;12.57;;;7.10;;
16579;SDS011;8402;51.466;6.806;2023-07-02T14:41:49;15.70;;;7.22;;
16579;SDS011;8402;51.466;6.806;2023-07-02T14:44:21;17.63;;;7.82;;
16579;SDS011;8402;51.466;6.806;2023-07-02T14:46:51;16.65;;;7.20;;
16579;SDS011;8402;51.466;6.806;2023-07-02T14:49:21;14.65;;;7.78;;
16579;SDS011;8402;51.466;6.806;2023-07-02T14:51:52;18.10;;;8.05;;
16579;SDS011;8402;51.466;6.806;2023-07-02T14:54:22;16.92;;;7.43;;
16579;SDS011;8402;51.466;6.806;2023-07-02T14:56:52;20.77;;;7.88;;
16579;SDS011;8402;51.466;6.806;2023-07-02T14:59:24;14.25;;;7.30;;
16579;SDS011;8402;51.466;6.806;2023-07-02T15:01:54;17.00;;;8.18;;
16579;SDS011;8402;51.466;6.806;2023-07-02T15:04:24;16.77;;;6.85;;
16579;SDS011;8402;51.466;6.806;2023-07-02T15:06:55;13.63;;;7.22;;
16579;SDS011;8402;51.466;6.806;2023-07-02T15:09:25;16.10;;;7.25;;
16579;SDS011;8402;51.466;6.806;2023-07-02T15:11:55;15.60;;;6.95;;
16579;SDS011;8402;51.466;6.806;2023-07-02T15:14:28;13.57;;;6.75;;
16579;SDS011;8402;51.466;6.806;2023-07-02T15:16:58;18.30;;;8.80;;